Orion Township, Michigan
Current Conditions -  °F | °C
As of 3:53 PM on Monday 22 Dec 2014 (Local Time) from KPTK Reporting Station
Broken Clouds Broken Clouds  
Wind Chill: 30°   Ceiling: 9500
Heat Index: 36°   Visibility: 10mi
Dew Point: 29°   Wind: 7mph
Humidity: 76%   Direction: 100°E
Pressure: 29.92"   Gusts: NA
Location:  42.7458°N, 83.2617°W
Report Text: KPTK 222053Z 10006KT 10SM BKN095 BKN230 02/M02 A2992 RMK AO2 SLP144 T00221017 56017
Loading
Personal Weather Stations






























Interactive Weather Map New forecast layout! Learn more

10-Day Weather Forecast

Advertisements
Track Severe Weather on mobile